Time;durP1;ratioP1;P1;durP2;ratioP2;P2;SDS_P1;SDS_P2;PMS_P1;PMS_P2;Temp;Humidity;BMP_temperature;BMP_pressure;BME280_temperature;BME280_humidity;BME280_pressure;Samples;Min_cycle;Max_cycle;Signal;HPM_P1;HPM_P2
2021/10/11 00:00:09;;;;;;;0.40;0.20;;;;;;;;;;5035514;28;20057;-68
2021/10/11 00:02:34;;;;;;;0.77;0.47;;;;;;;;;;5035871;28;20025;-69
2021/10/11 00:05:00;;;;;;;0.85;0.47;;;;;;;;;;5035911;28;20072;-69
2021/10/11 00:07:25;;;;;;;1.27;0.40;;;;;;;;;;5035715;28;20025;-68
2021/10/11 00:09:50;;;;;;;1.92;0.60;;;;;;;;;;5036035;28;20072;-68
2021/10/11 00:12:19;;;;;;;0.20;0.20;;;;;;;;;;5035788;28;20017;-69
2021/10/11 00:14:44;;;;;;;0.75;0.43;;;;;;;;;;5035460;28;20345;-68
2021/10/11 00:17:09;;;;;;;0.30;0.10;;;;;;;;;;5034839;28;20485;-69
2021/10/11 00:19:36;;;;;;;0.25;0.20;;;;;;;;;;5035486;28;20028;-69
2021/10/11 00:22:02;;;;;;;0.45;0.45;;;;;;;;;;5035532;28;20416;-68
2021/10/11 00:24:27;;;;;;;0.50;0.40;;;;;;;;;;5035527;28;20025;-69
2021/10/11 00:26:52;;;;;;;2.60;0.50;;;;;;;;;;5035571;28;20475;-69
2021/10/11 00:29:17;;;;;;;1.20;0.40;;;;;;;;;;5035521;28;20132;-68
2021/10/11 00:31:43;;;;;;;0.80;0.50;;;;;;;;;;5035395;28;20061;-68
2021/10/11 00:34:08;;;;;;;0.38;0.38;;;;;;;;;;5035467;28;20024;-69
2021/10/11 00:36:33;;;;;;;2.00;0.70;;;;;;;;;;5035401;28;20017;-69
2021/10/11 00:38:58;;;;;;;1.77;0.70;;;;;;;;;;5035258;28;20779;-68
2021/10/11 00:41:27;;;;;;;0.40;0.25;;;;;;;;;;5035079;28;20028;-69
2021/10/11 00:43:53;;;;;;;0.43;0.40;;;;;;;;;;5035012;28;20121;-68
2021/10/11 00:46:18;;;;;;;0.52;0.40;;;;;;;;;;5035082;28;20519;-69
2021/10/11 00:48:43;;;;;;;1.55;0.40;;;;;;;;;;5035123;28;20025;-69
2021/10/11 00:51:09;;;;;;;0.52;0.25;;;;;;;;;;5035217;28;20025;-69
2021/10/11 00:53:34;;;;;;;1.70;0.40;;;;;;;;;;5035040;28;20026;-68
2021/10/11 00:55:59;;;;;;;0.80;0.50;;;;;;;;;;5035241;28;20464;-69
2021/10/11 00:58:25;;;;;;;0.95;0.50;;;;;;;;;;5034802;28;20350;-69
2021/10/11 01:00:50;;;;;;;0.43;0.40;;;;;;;;;;5034716;28;20073;-69
2021/10/11 01:03:24;;;;;;;0.52;0.52;;;;;;;;;;5034650;28;20022;-69
2021/10/11 01:05:50;;;;;;;;;;;;;;;;;;5035346;28;20025;-70
2021/10/11 01:08:16;;;;;;;2.00;0.50;;;;;;;;;;5034787;28;19905;-68
2021/10/11 01:10:46;;;;;;;0.85;0.43;;;;;;;;;;5034736;28;20018;-68
2021/10/11 01:13:11;;;;;;;0.40;0.30;;;;;;;;;;5034529;28;20461;-69
2021/10/11 01:15:36;;;;;;;0.63;0.30;;;;;;;;;;5034699;28;20021;-69
2021/10/11 01:18:02;;;;;;;0.32;0.30;;;;;;;;;;5034747;28;20022;-69
2021/10/11 01:20:28;;;;;;;0.50;0.50;;;;;;;;;;5034345;28;20045;-69
2021/10/11 01:22:54;;;;;;;1.90;0.50;;;;;;;;;;5034514;28;20013;-69
2021/10/11 01:25:19;;;;;;;1.58;0.20;;;;;;;;;;5034296;28;20021;-69
2021/10/11 01:27:44;;;;;;;1.55;0.60;;;;;;;;;;5033812;28;20161;-69
2021/10/11 01:30:12;;;;;;;0.60;0.50;;;;;;;;;;5034356;28;20022;-69
2021/10/11 01:32:38;;;;;;;1.27;0.50;;;;;;;;;;5034301;28;20017;-69
2021/10/11 01:35:03;;;;;;;0.45;0.40;;;;;;;;;;5034308;28;20018;-70
2021/10/11 01:37:29;;;;;;;0.75;0.30;;;;;;;;;;5033778;28;20024;-69
2021/10/11 01:39:54;;;;;;;1.00;0.40;;;;;;;;;;5034371;28;20087;-69
2021/10/11 01:42:19;;;;;;;0.88;0.50;;;;;;;;;;5033736;28;20434;-68
2021/10/11 01:44:44;;;;;;;0.98;0.60;;;;;;;;;;5033915;28;20029;-70
2021/10/11 01:47:12;;;;;;;0.90;0.40;;;;;;;;;;5034161;28;20037;-69
2021/10/11 01:49:38;;;;;;;0.60;0.47;;;;;;;;;;5033839;28;20097;-69
2021/10/11 01:52:03;;;;;;;0.40;0.40;;;;;;;;;;5033821;28;20584;-69
2021/10/11 01:54:28;;;;;;;0.93;0.40;;;;;;;;;;5033857;28;20021;-68
2021/10/11 01:56:54;;;;;;;0.50;0.30;;;;;;;;;;5033999;28;20024;-69
2021/10/11 01:59:20;;;;;;;0.32;0.32;;;;;;;;;;5033490;28;20550;-69
2021/10/11 02:01:45;;;;;;;0.38;0.30;;;;;;;;;;5060001;23;20504;-69
2021/10/11 02:04:10;;;;;;;0.75;0.35;;;;;;;;;;5053643;28;20063;-69
2021/10/11 02:06:37;;;;;;;0.75;0.30;;;;;;;;;;5053729;28;20041;-69
2021/10/11 02:09:02;;;;;;;0.80;0.30;;;;;;;;;;5053409;28;20100;-68
2021/10/11 02:11:28;;;;;;;0.30;0.30;;;;;;;;;;5053376;28;20246;-69
2021/10/11 02:13:55;;;;;;;0.52;0.47;;;;;;;;;;5053470;28;20017;-69
2021/10/11 02:16:21;;;;;;;0.63;0.43;;;;;;;;;;5053611;28;20021;-69
2021/10/11 02:18:46;;;;;;;0.52;0.30;;;;;;;;;;5052252;28;20460;-68
2021/10/11 02:21:11;;;;;;;1.80;0.50;;;;;;;;;;5053388;28;20036;-69
2021/10/11 02:23:36;;;;;;;0.70;0.50;;;;;;;;;;5053512;28;20037;-68
2021/10/11 02:26:02;;;;;;;1.30;0.73;;;;;;;;;;5053315;28;20448;-69
2021/10/11 02:28:27;;;;;;;0.50;0.40;;;;;;;;;;5053030;28;20257;-69
2021/10/11 02:30:52;;;;;;;0.80;0.20;;;;;;;;;;5053581;28;20032;-69
2021/10/11 02:33:17;;;;;;;0.20;0.20;;;;;;;;;;5052894;28;20412;-68
2021/10/11 02:35:44;;;;;;;0.63;0.20;;;;;;;;;;5053416;28;20033;-69
2021/10/11 02:38:09;;;;;;;0.35;0.35;;;;;;;;;;5052372;28;20071;-69
2021/10/11 02:40:36;;;;;;;1.90;0.50;;;;;;;;;;5053128;28;20053;-69
2021/10/11 02:43:01;;;;;;;1.20;0.38;;;;;;;;;;5053392;28;20100;-69
2021/10/11 02:45:26;;;;;;;0.55;0.35;;;;;;;;;;5053093;28;20163;-69
2021/10/11 02:47:51;;;;;;;1.08;0.30;;;;;;;;;;5053236;28;20063;-68
2021/10/11 02:50:17;;;;;;;0.52;0.22;;;;;;;;;;5052969;28;20025;-69
2021/10/11 02:52:42;;;;;;;0.50;0.25;;;;;;;;;;5053193;28;20025;-70
2021/10/11 02:55:07;;;;;;;2.70;0.50;;;;;;;;;;5053174;28;20104;-69
2021/10/11 02:57:35;;;;;;;0.50;0.22;;;;;;;;;;5052592;28;20476;-69
2021/10/11 03:00:00;;;;;;;0.25;0.10;;;;;;;;;;5053067;28;20045;-69
2021/10/11 03:02:25;;;;;;;0.38;0.30;;;;;;;;;;5052876;28;20140;-69
2021/10/11 03:04:50;;;;;;;0.63;0.60;;;;;;;;;;5052952;28;20029;-68
2021/10/11 03:07:16;;;;;;;0.73;0.40;;;;;;;;;;5052961;28;20752;-69
2021/10/11 03:09:42;;;;;;;0.60;0.30;;;;;;;;;;5052961;28;20051;-69
2021/10/11 03:12:07;;;;;;;0.70;0.38;;;;;;;;;;5052572;28;20017;-69
2021/10/11 03:14:34;;;;;;;1.40;0.20;;;;;;;;;;5051735;28;20025;-69
2021/10/11 03:16:59;;;;;;;0.43;0.32;;;;;;;;;;5052755;28;20063;-69
2021/10/11 03:19:25;;;;;;;0.57;0.30;;;;;;;;;;5052813;28;20376;-69
2021/10/11 03:21:52;;;;;;;0.43;0.22;;;;;;;;;;5052768;28;20250;-68
2021/10/11 03:24:19;;;;;;;1.38;0.47;;;;;;;;;;5052745;28;20489;-69
2021/10/11 03:26:46;;;;;;;0.85;0.20;;;;;;;;;;5052854;28;20025;-69
2021/10/11 03:29:11;;;;;;;2.15;0.43;;;;;;;;;;5052937;28;20106;-69
2021/10/11 03:31:37;;;;;;;0.80;0.22;;;;;;;;;;5052880;28;20065;-69
2021/10/11 03:34:04;;;;;;;0.60;0.30;;;;;;;;;;5052885;28;20097;-68
2021/10/11 03:36:29;;;;;;;0.63;0.30;;;;;;;;;;5052600;28;20048;-69
2021/10/11 03:38:56;;;;;;;1.90;0.22;;;;;;;;;;5052938;28;20380;-69
2021/10/11 03:41:22;;;;;;;0.82;0.28;;;;;;;;;;5052725;28;20474;-69
2021/10/11 03:43:47;;;;;;;0.17;0.17;;;;;;;;;;5052468;28;20029;-69
2021/10/11 03:46:12;;;;;;;2.80;0.43;;;;;;;;;;5052477;28;20023;-69
2021/10/11 03:48:37;;;;;;;1.30;0.30;;;;;;;;;;5052604;28;20100;-68
2021/10/11 03:51:02;;;;;;;0.30;0.25;;;;;;;;;;5055222;28;20465;-68
2021/10/11 03:53:29;;;;;;;0.20;0.10;;;;;;;;;;5056093;28;20514;-69
2021/10/11 03:55:54;;;;;;;1.23;0.30;;;;;;;;;;5056215;28;20461;-69
2021/10/11 03:58:20;;;;;;;0.30;0.30;;;;;;;;;;5055881;28;20071;-69
2021/10/11 04:00:45;;;;;;;0.30;0.30;;;;;;;;;;5055892;28;20439;-69
2021/10/11 04:03:10;;;;;;;0.40;0.40;;;;;;;;;;5056013;28;20099;-68
2021/10/11 04:05:36;;;;;;;0.70;0.40;;;;;;;;;;5055578;28;20278;-69
2021/10/11 04:08:11;;;;;;;0.30;0.20;;;;;;;;;;5056007;28;20092;-69
2021/10/11 04:10:42;;;;;;;0.10;0.10;;;;;;;;;;5055964;28;20009;-69
2021/10/11 04:13:07;;;;;;;0.82;0.25;;;;;;;;;;5056027;28;20018;-69
2021/10/11 04:15:33;;;;;;;2.63;0.10;;;;;;;;;;5055652;28;20020;-69
2021/10/11 04:17:59;;;;;;;1.23;0.38;;;;;;;;;;5055720;28;20017;-69
2021/10/11 04:20:24;;;;;;;0.63;0.30;;;;;;;;;;5055655;28;20070;-68
2021/10/11 04:22:50;;;;;;;0.45;0.17;;;;;;;;;;5055838;28;20092;-69
2021/10/11 04:25:15;;;;;;;0.32;0.20;;;;;;;;;;5055462;28;20378;-69
2021/10/11 04:27:40;;;;;;;0.22;0.20;;;;;;;;;;5055539;28;20643;-68
2021/10/11 04:30:06;;;;;;;0.60;0.30;;;;;;;;;;5055565;28;20024;-69
2021/10/11 04:32:31;;;;;;;0.40;0.40;;;;;;;;;;5055404;28;20017;-68
2021/10/11 04:34:56;;;;;;;1.38;0.32;;;;;;;;;;5055260;28;20487;-69
2021/10/11 04:37:22;;;;;;;0.30;0.20;;;;;;;;;;5055207;28;20020;-69
2021/10/11 04:39:47;;;;;;;0.40;0.30;;;;;;;;;;5055374;28;20725;-70
2021/10/11 04:42:12;;;;;;;0.10;0.10;;;;;;;;;;5055480;28;20035;-69
2021/10/11 04:44:37;;;;;;;0.75;0.22;;;;;;;;;;5053822;28;20029;-69
2021/10/11 04:47:04;;;;;;;0.60;0.40;;;;;;;;;;5055301;28;20021;-69
2021/10/11 04:49:29;;;;;;;0.10;0.10;;;;;;;;;;5055187;28;20107;-69
2021/10/11 04:51:54;;;;;;;0.20;0.20;;;;;;;;;;5055197;28;20480;-69
2021/10/11 04:54:19;;;;;;;0.57;0.30;;;;;;;;;;5053661;28;20368;-70
2021/10/11 04:56:44;;;;;;;0.15;0.15;;;;;;;;;;5054960;28;20345;-69
2021/10/11 04:59:10;;;;;;;0.50;0.20;;;;;;;;;;5054997;28;20095;-69
2021/10/11 05:01:35;;;;;;;0.75;0.30;;;;;;;;;;5053855;28;20088;-69
2021/10/11 05:04:00;;;;;;;0.32;0.30;;;;;;;;;;5054752;28;20017;-69
2021/10/11 05:06:25;;;;;;;1.10;0.47;;;;;;;;;;5054819;28;20021;-69
2021/10/11 05:08:51;;;;;;;0.67;0.13;;;;;;;;;;5054586;28;20025;-69
2021/10/11 05:11:17;;;;;;;0.90;0.30;;;;;;;;;;5054683;28;20598;-68
2021/10/11 05:13:42;;;;;;;0.20;0.20;;;;;;;;;;5054619;28;20031;-69
2021/10/11 05:16:12;;;;;;;0.70;0.03;;;;;;;;;;5054706;28;20025;-69
2021/10/11 05:18:37;;;;;;;0.35;0.15;;;;;;;;;;5054584;28;20050;-69
2021/10/11 05:21:04;;;;;;;0.68;0.30;;;;;;;;;;5053228;28;20060;-69
2021/10/11 05:23:30;;;;;;;0.28;0.28;;;;;;;;;;5054289;28;20021;-69
2021/10/11 05:25:56;;;;;;;1.77;0.30;;;;;;;;;;5054428;28;20013;-68
2021/10/11 05:28:21;;;;;;;0.10;0.10;;;;;;;;;;5053943;28;20074;-69
2021/10/11 05:30:49;;;;;;;0.35;0.30;;;;;;;;;;5054199;28;20029;-69
2021/10/11 05:33:15;;;;;;;0.47;0.17;;;;;;;;;;5052835;28;20028;-69
2021/10/11 05:35:40;;;;;;;0.60;0.15;;;;;;;;;;5054289;28;20021;-69
2021/10/11 05:38:06;;;;;;;0.50;0.30;;;;;;;;;;5052854;28;20021;-68
2021/10/11 05:40:31;;;;;;;0.40;0.38;;;;;;;;;;5054065;28;20029;-68
2021/10/11 05:42:57;;;;;;;0.60;0.20;;;;;;;;;;5053973;28;20021;-69
2021/10/11 05:45:22;;;;;;;0.30;0.20;;;;;;;;;;5053906;28;20025;-68
2021/10/11 05:47:48;;;;;;;0.45;0.25;;;;;;;;;;5054327;28;20025;-69
2021/10/11 05:50:14;;;;;;;0.53;0.10;;;;;;;;;;5053874;28;20078;-69
2021/10/11 05:52:39;;;;;;;0.10;0.10;;;;;;;;;;5054024;28;20251;-68
2021/10/11 05:55:06;;;;;;;0.30;0.10;;;;;;;;;;5053775;28;20503;-69
2021/10/11 05:57:32;;;;;;;0.30;0.15;;;;;;;;;;5053538;28;20028;-69
2021/10/11 05:59:58;;;;;;;0.40;0.40;;;;;;;;;;5053288;28;20087;-69
2021/10/11 06:02:23;;;;;;;0.30;0.20;;;;;;;;;;5053801;28;20439;-69
2021/10/11 06:04:48;;;;;;;0.38;0.35;;;;;;;;;;5053511;28;20099;-69
2021/10/11 06:07:14;;;;;;;0.20;0.20;;;;;;;;;;5052526;28;20029;-68
2021/10/11 06:09:41;;;;;;;0.20;0.20;;;;;;;;;;5053575;28;20048;-68
2021/10/11 06:12:06;;;;;;;0.30;0.20;;;;;;;;;;5053616;28;20483;-69
2021/10/11 06:14:31;;;;;;;0.35;0.30;;;;;;;;;;5053492;28;20100;-69
2021/10/11 06:16:56;;;;;;;0.25;0.25;;;;;;;;;;5053516;28;20480;-69
2021/10/11 06:19:21;;;;;;;0.88;0.10;;;;;;;;;;5053596;28;20376;-70
2021/10/11 06:21:48;;;;;;;0.28;0.20;;;;;;;;;;5053506;28;20479;-69
2021/10/11 06:24:14;;;;;;;0.20;0.13;;;;;;;;;;5053284;28;20013;-68
2021/10/11 06:26:39;;;;;;;0.70;0.38;;;;;;;;;;5053551;28;20024;-69
2021/10/11 06:29:06;;;;;;;0.20;0.10;;;;;;;;;;5053397;28;20017;-69
2021/10/11 06:31:31;;;;;;;0.40;0.13;;;;;;;;;;5053316;28;20096;-69
2021/10/11 06:33:56;;;;;;;0.40;0.10;;;;;;;;;;5053298;28;20135;-70
2021/10/11 06:36:22;;;;;;;0.70;0.25;;;;;;;;;;5053341;28;20029;-69
2021/10/11 06:38:47;;;;;;;0.32;0.25;;;;;;;;;;5053401;28;20029;-69
2021/10/11 06:41:12;;;;;;;0.13;0.10;;;;;;;;;;5052063;28;20021;-69
2021/10/11 06:43:39;;;;;;;0.95;0.20;;;;;;;;;;5053165;28;20029;-69
2021/10/11 06:46:04;;;;;;;0.25;0.10;;;;;;;;;;5053369;28;20368;-70
2021/10/11 06:48:29;;;;;;;0.10;0.10;;;;;;;;;;5053044;28;20036;-70
2021/10/11 06:50:55;;;;;;;0.50;0.20;;;;;;;;;;5053318;28;20474;-69
2021/10/11 06:53:20;;;;;;;0.10;0.10;;;;;;;;;;5053117;28;20468;-69
2021/10/11 06:55:46;;;;;;;0.63;0.30;;;;;;;;;;5053130;28;20025;-69
2021/10/11 06:58:11;;;;;;;2.40;0.40;;;;;;;;;;5053058;28;20029;-69
2021/10/11 07:00:37;;;;;;;0.43;0.20;;;;;;;;;;5052842;28;20041;-69
2021/10/11 07:03:04;;;;;;;0.52;0.10;;;;;;;;;;5053112;28;20021;-69
2021/10/11 07:05:30;;;;;;;0.95;0.30;;;;;;;;;;5052825;28;20117;-69
2021/10/11 07:07:57;;;;;;;0.32;0.17;;;;;;;;;;5053192;28;20051;-69
2021/10/11 07:10:24;;;;;;;0.38;0.25;;;;;;;;;;5053045;28;20040;-69
2021/10/11 07:12:49;;;;;;;0.22;0.20;;;;;;;;;;5052924;28;20017;-69
2021/10/11 07:15:14;;;;;;;0.20;0.10;;;;;;;;;;5052727;28;20025;-69
2021/10/11 07:17:39;;;;;;;0.97;0.30;;;;;;;;;;5051590;28;20021;-69
2021/10/11 07:20:06;;;;;;;0.10;0.10;;;;;;;;;;5052744;28;20341;-69
2021/10/11 07:22:31;;;;;;;0.13;0.13;;;;;;;;;;5052966;28;20020;-69
2021/10/11 07:24:56;;;;;;;0.20;0.20;;;;;;;;;;5053627;28;20021;-69
2021/10/11 07:27:21;;;;;;;0.22;0.15;;;;;;;;;;5056652;28;20254;-69
2021/10/11 07:29:49;;;;;;;0.28;0.10;;;;;;;;;;5056647;28;20029;-69
2021/10/11 07:32:14;;;;;;;1.20;0.28;;;;;;;;;;5056766;28;20017;-69
2021/10/11 07:34:40;;;;;;;0.32;0.10;;;;;;;;;;5056516;28;20017;-70
2021/10/11 07:37:05;;;;;;;1.50;0.20;;;;;;;;;;5055337;28;20456;-69
2021/10/11 07:39:31;;;;;;;0.10;0.10;;;;;;;;;;5056433;28;20032;-68
2021/10/11 07:41:58;;;;;;;0.30;0.30;;;;;;;;;;5056456;28;20116;-69
2021/10/11 07:44:23;;;;;;;1.17;0.10;;;;;;;;;;5056431;28;20623;-69
2021/10/11 07:46:58;;;;;;;0.20;0.10;;;;;;;;;;5056357;28;20013;-69
2021/10/11 07:49:23;;;;;;;0.47;0.25;;;;;;;;;;5056328;28;20025;-69
2021/10/11 07:51:48;;;;;;;0.43;0.13;;;;;;;;;;5056219;28;20029;-69
2021/10/11 07:54:16;;;;;;;1.63;0.25;;;;;;;;;;5055191;28;20032;-69
2021/10/11 07:56:41;;;;;;;0.70;0.10;;;;;;;;;;5056055;28;20017;-70
2021/10/11 07:59:07;;;;;;;0.08;0.08;;;;;;;;;;5056122;28;20360;-69
2021/10/11 08:01:34;;;;;;;0.10;0.10;;;;;;;;;;5055652;28;20044;-69
2021/10/11 08:04:01;;;;;;;0.45;0.20;;;;;;;;;;5056124;28;20028;-69
2021/10/11 08:06:27;;;;;;;0.25;0.10;;;;;;;;;;5055919;28;20021;-70
2021/10/11 08:08:52;;;;;;;0.68;0.30;;;;;;;;;;5056199;28;20029;-69
2021/10/11 08:11:17;;;;;;;0.10;0.10;;;;;;;;;;5055966;28;20020;-69
2021/10/11 08:13:42;;;;;;;0.85;0.20;;;;;;;;;;5055951;28;20032;-71
2021/10/11 08:16:09;;;;;;;0.20;0.20;;;;;;;;;;5055989;28;20028;-69
2021/10/11 08:18:34;;;;;;;0.77;0.20;;;;;;;;;;5055539;28;20028;-69
2021/10/11 08:21:04;;;;;;;0.52;0.10;;;;;;;;;;5055888;28;20544;-69
2021/10/11 08:23:31;;;;;;;0.15;0.15;;;;;;;;;;5055720;28;20367;-69
2021/10/11 08:25:56;;;;;;;3.05;0.88;;;;;;;;;;5055733;28;20372;-69
2021/10/11 08:28:21;;;;;;;0.10;0.10;;;;;;;;;;5055355;28;20021;-69
2021/10/11 08:30:46;;;;;;;0.23;0.20;;;;;;;;;;5055575;28;20051;-70
2021/10/11 08:33:12;;;;;;;1.30;0.45;;;;;;;;;;5055530;28;20258;-69
2021/10/11 08:35:37;;;;;;;0.17;0.10;;;;;;;;;;5055329;28;20039;-69
2021/10/11 08:38:02;;;;;;;0.47;0.10;;;;;;;;;;5054445;28;20468;-70
2021/10/11 08:40:27;;;;;;;0.15;0.15;;;;;;;;;;5055242;28;20044;-69
2021/10/11 08:42:53;;;;;;;0.60;0.20;;;;;;;;;;5055167;28;20020;-69
2021/10/11 08:45:18;;;;;;;0.88;0.10;;;;;;;;;;5055339;28;20029;-70
2021/10/11 08:47:43;;;;;;;0.52;0.20;;;;;;;;;;5055393;28;20035;-70
2021/10/11 08:50:11;;;;;;;0.85;0.10;;;;;;;;;;5055167;28;20468;-69
2021/10/11 08:52:37;;;;;;;2.75;0.28;;;;;;;;;;5055126;28;20013;-70
2021/10/11 08:55:03;;;;;;;0.20;0.17;;;;;;;;;;5055296;28;20032;-69
2021/10/11 08:57:36;;;;;;;0.95;0.20;;;;;;;;;;5054960;28;20024;-69
2021/10/11 09:00:09;;;;;;;0.20;0.20;;;;;;;;;;5054334;28;20091;-69
2021/10/11 09:02:34;;;;;;;0.20;0.10;;;;;;;;;;5054887;28;20028;-70
2021/10/11 09:05:00;;;;;;;0.10;0.10;;;;;;;;;;5054769;28;20399;-69
2021/10/11 09:07:27;;;;;;;0.27;0.13;;;;;;;;;;5054799;28;20064;-69
2021/10/11 09:09:55;;;;;;;0.65;0.30;;;;;;;;;;5054801;28;20249;-69
2021/10/11 09:12:22;;;;;;;0.57;0.10;;;;;;;;;;5054851;28;20092;-69
2021/10/11 09:14:52;;;;;;;0.08;0.05;;;;;;;;;;5054616;28;20021;-69
2021/10/11 09:17:21;;;;;;;0.88;0.43;;;;;;;;;;5054815;28;20016;-69
2021/10/11 09:19:57;;;;;;;1.95;0.20;;;;;;;;;;5054700;28;20059;-69
2021/10/11 09:22:33;;;;;;;0.35;0.28;;;;;;;;;;5054632;28;20021;-69
2021/10/11 09:24:58;;;;;;;0.28;0.28;;;;;;;;;;5054520;28;20024;-69
2021/10/11 09:27:24;;;;;;;0.22;0.15;;;;;;;;;;5054256;28;20020;-70
2021/10/11 09:29:49;;;;;;;0.75;0.20;;;;;;;;;;5054422;28;20098;-69
2021/10/11 09:32:14;;;;;;;0.22;0.15;;;;;;;;;;5053155;28;20032;-69
2021/10/11 09:34:46;;;;;;;0.13;0.13;;;;;;;;;;5053107;28;20349;-69
2021/10/11 09:37:13;;;;;;;0.17;0.00;;;;;;;;;;5054310;28;20254;-69
2021/10/11 09:39:40;;;;;;;0.73;0.10;;;;;;;;;;5054404;28;20032;-70
2021/10/11 09:42:10;;;;;;;0.20;0.10;;;;;;;;;;5054158;28;20023;-69
2021/10/11 09:44:36;;;;;;;0.32;0.10;;;;;;;;;;5053899;28;20017;-69
2021/10/11 09:49:27;;;;;;;0.20;0.20;;;;;;;;;;5053643;28;20016;-69
2021/10/11 09:51:53;;;;;;;0.90;0.20;;;;;;;;;;5054229;28;20426;-69
2021/10/11 09:54:18;;;;;;;0.13;0.10;;;;;;;;;;5053920;28;20258;-70
2021/10/11 09:56:52;;;;;;;0.15;0.10;;;;;;;;;;5054189;28;20025;-70
2021/10/11 09:59:18;;;;;;;0.55;0.20;;;;;;;;;;5053913;28;20103;-69
2021/10/11 10:01:46;;;;;;;0.10;0.10;;;;;;;;;;5053693;28;20135;-70
2021/10/11 10:04:13;;;;;;;0.63;0.13;;;;;;;;;;5053605;28;20530;-69
2021/10/11 10:06:38;;;;;;;1.13;0.22;;;;;;;;;;5052700;28;20021;-70
2021/10/11 10:09:07;;;;;;;0.10;0.10;;;;;;;;;;5054115;28;20063;-70
2021/10/11 10:11:33;;;;;;;0.68;0.28;;;;;;;;;;5053419;28;20472;-69
2021/10/11 10:14:01;;;;;;;1.20;0.28;;;;;;;;;;5053680;28;20082;-69
2021/10/11 10:16:29;;;;;;;0.32;0.08;;;;;;;;;;5053761;28;20029;-69
2021/10/11 10:18:55;;;;;;;0.10;0.00;;;;;;;;;;5053873;28;20023;-69
2021/10/11 10:21:40;;;;;;;0.57;0.13;;;;;;;;;;5053494;28;20119;-70
2021/10/11 10:24:05;;;;;;;0.10;0.10;;;;;;;;;;5053573;28;20468;-69
2021/10/11 10:26:37;;;;;;;0.55;0.10;;;;;;;;;;5052058;28;20129;-69
2021/10/11 10:29:17;;;;;;;0.45;0.25;;;;;;;;;;5053570;28;20056;-70
2021/10/11 10:31:42;;;;;;;1.77;0.43;;;;;;;;;;5050094;28;20029;-69
2021/10/11 10:34:21;;;;;;;0.40;0.20;;;;;;;;;;5053619;28;20116;-70
2021/10/11 10:37:09;;;;;;;0.20;0.15;;;;;;;;;;5053373;28;20025;-69
2021/10/11 10:39:37;;;;;;;0.80;0.10;;;;;;;;;;5053248;28;20048;-70
2021/10/11 10:42:02;;;;;;;1.83;0.17;;;;;;;;;;5052127;28;20087;-69
2021/10/11 10:44:29;;;;;;;0.50;0.30;;;;;;;;;;5053327;28;20110;-69
2021/10/11 10:46:55;;;;;;;0.30;0.20;;;;;;;;;;5053602;28;20028;-70
2021/10/11 10:49:28;;;;;;;0.65;0.00;;;;;;;;;;5053319;28;20091;-69
2021/10/11 10:51:54;;;;;;;0.38;0.17;;;;;;;;;;5053360;28;20455;-69
2021/10/11 10:54:31;;;;;;;0.15;0.10;;;;;;;;;;5053134;28;20056;-70
2021/10/11 10:56:56;;;;;;;0.52;0.13;;;;;;;;;;5052172;28;20025;-69
2021/10/11 10:59:24;;;;;;;0.10;0.10;;;;;;;;;;5053268;28;20013;-69
2021/10/11 11:01:50;;;;;;;0.10;0.10;;;;;;;;;;5057300;28;20282;-70
2021/10/11 11:04:21;;;;;;;0.03;0.00;;;;;;;;;;5057351;28;20044;-69
2021/10/11 11:06:57;;;;;;;0.10;0.00;;;;;;;;;;5057383;28;20017;-69
2021/10/11 11:09:41;;;;;;;0.52;0.10;;;;;;;;;;5057326;28;20095;-70
2021/10/11 11:12:06;;;;;;;0.30;0.17;;;;;;;;;;5056715;28;20017;-69
2021/10/11 11:14:31;;;;;;;0.20;0.20;;;;;;;;;;5057220;28;20032;-69
2021/10/11 11:16:56;;;;;;;0.28;0.10;;;;;;;;;;5057327;28;20013;-70
2021/10/11 11:19:22;;;;;;;0.13;0.10;;;;;;;;;;5056980;28;20103;-69
2021/10/11 11:22:04;;;;;;;0.20;0.10;;;;;;;;;;5056840;28;20261;-69
2021/10/11 11:24:32;;;;;;;0.20;0.17;;;;;;;;;;5056640;28;20021;-70
2021/10/11 11:27:00;;;;;;;0.30;0.20;;;;;;;;;;5056922;28;20013;-69
2021/10/11 11:29:25;;;;;;;0.10;0.03;;;;;;;;;;5056581;28;20013;-69
2021/10/11 11:31:52;;;;;;;0.17;0.00;;;;;;;;;;5057078;28;20059;-70
2021/10/11 11:34:17;;;;;;;0.57;0.17;;;;;;;;;;5056788;28;20278;-69
2021/10/11 11:36:52;;;;;;;0.63;0.20;;;;;;;;;;5056729;28;20056;-69
2021/10/11 11:39:19;;;;;;;0.40;0.10;;;;;;;;;;5056561;28;20013;-70
2021/10/11 11:41:49;;;;;;;0.20;0.10;;;;;;;;;;5056836;28;20017;-69
2021/10/11 11:44:20;;;;;;;1.17;0.15;;;;;;;;;;5056324;28;20452;-69
2021/10/11 11:46:46;;;;;;;0.35;0.10;;;;;;;;;;5056742;28;20082;-70
2021/10/11 11:49:11;;;;;;;0.10;0.10;;;;;;;;;;5056452;28;20025;-69
2021/10/11 11:51:36;;;;;;;0.10;0.10;;;;;;;;;;5055397;28;20013;-69
2021/10/11 11:54:02;;;;;;;0.22;0.10;;;;;;;;;;5056371;28;20067;-69
2021/10/11 11:56:27;;;;;;;0.08;0.00;;;;;;;;;;5055028;28;20051;-70
2021/10/11 11:58:54;;;;;;;0.50;0.10;;;;;;;;;;5056363;28;20017;-69
2021/10/11 12:01:21;;;;;;;1.55;0.17;;;;;;;;;;5056114;28;20499;-70
2021/10/11 12:04:01;;;;;;;0.32;0.10;;;;;;;;;;5058258;28;20017;-70
2021/10/11 12:06:27;;;;;;;0.85;0.55;;;;;;;;;;5064408;28;20460;-69
2021/10/11 12:08:54;;;;;;;0.38;0.20;;;;;;;;;;5057794;28;20021;-70
2021/10/11 12:11:20;;;;;;;0.28;0.10;;;;;;;;;;5056219;28;20151;-70
2021/10/11 12:13:55;;;;;;;0.55;0.10;;;;;;;;;;5056058;28;20028;-70
2021/10/11 12:16:24;;;;;;;0.10;0.00;;;;;;;;;;5071349;28;20394;-69
2021/10/11 12:18:51;;;;;;;0.35;0.10;;;;;;;;;;5076039;28;20013;-70
2021/10/11 12:21:20;;;;;;;0.00;0.00;;;;;;;;;;5075936;28;20028;-69
2021/10/11 12:23:46;;;;;;;2.58;0.40;;;;;;;;;;5055765;28;20070;-69
2021/10/11 12:26:13;;;;;;;0.10;0.10;;;;;;;;;;5063758;28;20024;-70
2021/10/11 12:28:55;;;;;;;0.43;0.10;;;;;;;;;;5057582;28;20103;-69
2021/10/11 12:31:22;;;;;;;0.00;0.00;;;;;;;;;;5053697;28;20349;-70
2021/10/11 12:33:49;;;;;;;0.28;0.10;;;;;;;;;;5053631;28;20040;-69
2021/10/11 12:36:15;;;;;;;0.65;0.10;;;;;;;;;;5055563;28;20013;-69
2021/10/11 12:38:40;;;;;;;0.38;0.10;;;;;;;;;;5055372;28;20017;-70
2021/10/11 12:41:06;;;;;;;0.68;0.17;;;;;;;;;;5055183;28;20036;-69
2021/10/11 12:43:32;;;;;;;0.30;0.20;;;;;;;;;;5055082;28;20067;-70
2021/10/11 12:46:05;;;;;;;0.20;0.10;;;;;;;;;;5055282;28;20025;-70
2021/10/11 12:48:30;;;;;;;0.10;0.10;;;;;;;;;;5055164;28;20021;-69
2021/10/11 12:50:56;;;;;;;0.20;0.17;;;;;;;;;;5055250;28;20028;-69
2021/10/11 12:53:26;;;;;;;0.20;0.10;;;;;;;;;;5054660;28;20289;-70
2021/10/11 12:55:52;;;;;;;0.30;0.05;;;;;;;;;;5055243;28;20025;-69
2021/10/11 12:58:26;;;;;;;0.75;0.10;;;;;;;;;;5055247;28;20021;-70
2021/10/11 13:00:52;;;;;;;1.38;0.30;;;;;;;;;;5054934;28;20037;-72
2021/10/11 13:03:18;;;;;;;0.08;0.00;;;;;;;;;;5054419;28;20578;-75
2021/10/11 13:05:52;;;;;;;0.35;0.10;;;;;;;;;;5055615;28;20029;-75
2021/10/11 13:08:38;;;;;;;;;;;;;;;;;;5056061;28;20017;-75
2021/10/11 13:11:09;;;;;;;0.57;0.10;;;;;;;;;;5056784;28;19950;-77
2021/10/11 13:13:36;;;;;;;0.10;0.10;;;;;;;;;;5055538;28;20017;-75
2021/10/11 13:16:03;;;;;;;0.15;0.10;;;;;;;;;;5055216;28;20174;-71
2021/10/11 13:18:30;;;;;;;0.00;0.00;;;;;;;;;;5055329;28;20741;-73
2021/10/11 13:20:59;;;;;;;0.22;0.10;;;;;;;;;;5055244;28;21613;-71
2021/10/11 13:23:25;;;;;;;0.20;0.10;;;;;;;;;;5054465;28;20036;-71
2021/10/11 13:25:50;;;;;;;0.32;0.10;;;;;;;;;;5055132;28;20036;-71
2021/10/11 13:28:16;;;;;;;0.60;0.10;;;;;;;;;;5055314;28;20023;-70
2021/10/11 13:34:08;;;;;;;0.20;0.10;;;;;;;;;;5055055;28;20018;-71
2021/10/11 13:37:28;;;;;;;0.40;0.10;;;;;;;;;;5054817;28;20404;-72
2021/10/11 14:27:48;;;;;;;0.20;0.10;;;;;;;;;;5013515;28;20025;-76
2021/10/11 14:30:40;;;;;;;0.40;0.10;;;;;;;;;;5015549;28;20026;-74
2021/10/11 16:00:31;;;;;;;0.47;0.15;;;;;;;;;;5007910;28;20049;-75
2021/10/11 16:03:05;;;;;;;0.10;0.10;;;;;;;;;;5001423;28;20030;-76
2021/10/11 16:05:32;;;;;;;0.10;0.10;;;;;;;;;;5018210;28;20021;-75
2021/10/11 16:08:06;;;;;;;0.70;0.10;;;;;;;;;;5015114;28;20101;-74
2021/10/11 16:13:54;;;;;;;0.75;0.28;;;;;;;;;;5023026;28;20063;-74
2021/10/11 16:16:46;;;;;;;0.03;0.00;;;;;;;;;;5035488;28;20028;-76
2021/10/11 16:19:13;;;;;;;0.40;0.20;;;;;;;;;;4975715;28;20111;-75
2021/10/11 16:21:39;;;;;;;0.88;0.00;;;;;;;;;;4975826;28;20093;-75
2021/10/11 16:24:13;;;;;;;0.32;0.10;;;;;;;;;;4959418;28;20039;-76
2021/10/11 16:26:41;;;;;;;0.20;0.10;;;;;;;;;;4975763;28;20031;-74
2021/10/11 16:29:20;;;;;;;0.08;0.08;;;;;;;;;;4959463;28;20082;-75
2021/10/11 16:31:54;;;;;;;0.10;0.10;;;;;;;;;;4983285;28;20071;-76
2021/10/11 16:34:45;;;;;;;0.25;0.00;;;;;;;;;;4977705;28;20470;-75
2021/10/11 16:37:19;;;;;;;0.35;0.00;;;;;;;;;;4975601;28;20114;-74
2021/10/11 16:40:02;;;;;;;0.63;0.08;;;;;;;;;;4975498;28;20039;-76
2021/10/11 16:42:30;;;;;;;0.30;0.10;;;;;;;;;;4975440;28;20113;-74
2021/10/11 16:45:07;;;;;;;0.30;0.20;;;;;;;;;;4975319;28;20029;-76
2021/10/11 16:47:59;;;;;;;0.17;0.17;;;;;;;;;;4959117;28;20023;-74
2021/10/11 16:50:25;;;;;;;0.60;0.17;;;;;;;;;;4975218;28;20080;-76
2021/10/11 16:53:05;;;;;;;0.35;0.10;;;;;;;;;;4959149;28;20529;-75
2021/10/11 16:56:07;;;;;;;0.95;0.20;;;;;;;;;;4993836;28;20384;-74
2021/10/11 16:58:33;;;;;;;0.00;0.00;;;;;;;;;;5035023;28;20021;-75
2021/10/11 17:00:58;;;;;;;0.57;0.20;;;;;;;;;;5041452;28;20045;-75
2021/10/11 17:03:23;;;;;;;0.10;0.10;;;;;;;;;;5035796;28;20022;-76
2021/10/11 17:05:49;;;;;;;0.20;0.10;;;;;;;;;;5035632;28;20051;-74
2021/10/11 17:08:26;;;;;;;0.40;0.10;;;;;;;;;;5035771;28;20021;-74